Het weer levert geen direct gevaar op.    Er zijn geen waarschuwingen afgegeven.

Weerstation
Sluispark-LeuvenLeuven-Sluispark

Weerstation
Wilsele-PutkapelWilsele-Putkapel



Nabijgelegen vliegvelden - METAR rapporten

   
EBBR - Wilsele bij Leuven
Gewijzigd: 24-11-2020 18:20
Helder    Wind: ZZO 9.3 km/h
Helder
Wind: Wind: ZZO 9.3 km/h
Temperatuur: 7°C
Voelt als: 5°C
Dauwpunt: 4°C
Vochtigheid: 81%
Barometer: 1019 hPa
Zicht: meer dan 10 km
Bewolking: Helder
EBBR 241720Z 16005KT CAVOK 07/04 Q1019 NOSIG
EBAW - Antwerp
Gewijzigd: 24-11-2020 18:50
Helder    Wind: ZZO 11.1 km/h
Helder
Wind: Wind: ZZO 11.1 km/h
Temperatuur: 8°C
Voelt als: 6°C
Dauwpunt: 5°C
Vochtigheid: 82%
Barometer: 1018 hPa
Zicht: meer dan 10 km
Bewolking: Helder
EBAW 241750Z 16006KT CAVOK 08/05 Q1018 NOSIG
EBLG - Li├Ęge
Gewijzigd: 24-11-2020 18:50
Helder    Wind: ZZO 16.7 km/h
Helder
Wind: Wind: ZZO 16.7 km/h
Temperatuur: 6°C
Voelt als: 3°C
Dauwpunt: 4°C
Vochtigheid: 87%
Barometer: 1019 hPa
Zicht: meer dan 10 km
Bewolking: Helder
EBLG 241750Z 16009KT CAVOK 06/04 Q1019 NOSIG
EBCV - Mons/Bergen
Gewijzigd: 24-11-2020 18:25
Helder    Wind: ZZO 11.1 km/h
Helder
Wind: Wind: ZZO 11.1 km/h
Temperatuur: 7°C
Voelt als: 5°C
Dauwpunt: 4°C
Vochtigheid: 81%
Barometer: 1018 hPa
Bewolking: Helder
Bewolking: Helder
EBCV 241725Z AUTO 15006KT //// NCD 07/04 Q1018
EHBK - Maastricht
Gewijzigd: 24-11-2020 18:25
Gedeeltelijk bewolkt    Wind: Zuiden 13 km/h
Gedeeltelijk bewolkt
Wind: Wind: Zuiden 13 km/h
Temperatuur: 7°C
Voelt als: 4°C
Dauwpunt: 4°C
Vochtigheid: 81%
Barometer: 1019 hPa
Bewolking: Gedeeltelijk bewolkt
Zicht: meer dan 10 km
Bewolking: Gedeeltelijk bewolkt
EHBK 241725Z AUTO 17007KT 9999 NSC 07/04 Q1019 NOSIG
ELLX - Luxemburg
Gewijzigd: 24-11-2020 18:50
Mist, Bewolking    Wind: ZO 14.8 km/h
Mist, Bewolking
Wind: Wind: ZO 14.8 km/h
Temperatuur: 3°C
Voelt als: -1°C
Dauwpunt: 3°C
Vochtigheid: 100%
Barometer: 1021 hPa
Bewolking: Bewolking
Zicht: 0 km
Bewolking: Bewolking 61 m
ELLX 241750Z 14008KT 0300 R24/0900V1400U FG VV002 03/03 Q1021 NOSIG
EBOS - Oostende
Gewijzigd: 24-11-2020 18:50
Helder    Wind: ZZO 16.7 km/h
Helder
Wind: Wind: ZZO 16.7 km/h
Temperatuur: 7°C
Voelt als: 4°C
Dauwpunt: 5°C
Vochtigheid: 87%
Barometer: 1017 hPa
Zicht: meer dan 10 km
Bewolking: Helder
EBOS 241750Z 15009KT CAVOK 07/05 Q1017 NOSIG
  

Script ontwikkeld door  Saratoga-weather.org Aangepast voor de template door  Weerstation Leuven

U vindt ons ook hier:

UK Metoffice

WeatherCloud

European Weather Network

Weather Underground

Benelux Weather Network

AWEKAS

WeatherlinkIP

HAMweather, WeatherForYou, PWS Weather

Het Weer Aktueel

Apparatuur in gebruik:

Weer-station
Davis VP2 weatherstation

Weer-programma
Meteobridge

Weer-computer
D-Link DIR-505

Webleverancier
Robohost

Davis VP2 weatherstation

Meteobridge

D-Link DIR-505

Robohost